OROVILLE DAM (ORO)

Elevation: 900' · FEATHER R basin · Operator: CA Dept of Water Resources/O & M

Provisional data, subject to change.
Query executed Saturday at 7:20:08   clock

Select a sensor type for a plot of data.
Note: Reservoir Flows are daily averages.

Earlier

Date RES ELE    STORAGE    RES CHG    TOC STO    ABV TOC    OUTFLOW    INFLOW    EVAP    FNF    PPT INC    RAIN    PPTINC4   
 FEET   AF   AF   AF   AF   CFS   CFS   CFS   CFS   INCHES   INCHES   INCHES  
01/08/2016 671.26 1048457 5372 2967360 -1918975 372 3111 31 3443 0.00 11.20 0.08
01/09/2016 671.65 1051082 2625 2965560 -1913744 393 1760 9 3390 0.28 11.48 0.08
01/10/2016 672.33 1055672 4590 2972784 -1917150 386 2675 9 3235 0.00 11.48 0.20
01/11/2016 672.62 1057633 1961 2981465 -1923868 386 1411 2 2858 0.00 11.48 0.00
01/12/2016 672.90 1059529 1896 2988684 -1928032 780 1742 6 2358 0.00 11.48 0.00
01/13/2016 673.69 1064892 5363 2960161 -1895270 459 3139 11 5582 0.40 11.88 0.24
01/14/2016 674.80 1072458 7567 2944820 -1872362 979 4804 11 6232 0.60 12.48 0.16
01/15/2016 676.10 1081368 8909 2937526 -1856157 989 5484 4 6659 0.08 12.56 0.60
01/16/2016 677.37 1090122 8754 2926024 -1835902 50 4503 4 5745 0.44 13.00 0.24
01/17/2016 681.05 1115769 25647 2813411 -1697642 0 12859 0 17499 2.16 15.16 0.28
01/18/2016 689.14 1173642 57873 2812271 -1638630 0 29210 0 33102 0.04 15.20 2.20
01/19/2016 694.36 1212095 38453 2788000 -1575905 273 19724 66 23979 0.88 16.08 0.00
01/20/2016 698.14 1240498 28403 2791027 -1550529 20 14340 3 16767 0.00 16.08 0.88
01/21/2016 700.98 1262126 21628 2805730 -1543603 21 10939 10 12709 0.08 16.16 0.00
01/22/2016 703.75 1283477 21351 2788000 -1504523 20 10943 3 14782 0.84 17.00 0.08
01/23/2016 708.33 1319312 35835 2788000 -1468688 21 17935 5 22712 0.20 17.20 1.00
01/24/2016 711.78 1346748 27436 2788000 -1441252 439 14276 5 16940 0.04 17.24 0.04
01/25/2016 714.18 1366062 19314 2788000 -1421938 443 10212 32 11989 0.00 17.24 0.04
01/26/2016 716.10 1381648 15586 2788000 -1406352 437 8313 18 9786 0.00 17.24 0.00
01/27/2016 717.67 1394484 12836 2796407 -1401923 435 6908 3 7460 0.00 17.24 0.00
01/28/2016 719.06 1405916 11432 2806144 -1400228 565 6346 18 7088 0.12 17.36 0.00
01/29/2016 723.10 1439509 33593 2788000 -1348491 706 17648 5 23391 1.16 18.52 0.20
01/30/2016 730.27 1500489 60980 2788000 -1287511 405 31154 3 37148 0.04 18.56 1.12
01/31/2016 734.15 1534234 33745 2788000 -1253766 400 17365 3 20434 0.00 18.56 0.00
02/01/2016 736.90 1558458 24224 2788000 -1229542 402 12755 52 14437 0.00 18.56 0.00
02/02/2016 739.12 1578207 19749 2788000 -1209793 395 10337 30 -- 0.08 18.64 0.00
02/03/2016 740.97 1594798 16591 2788000 -1193202 389 8802 3 -- 0.00 18.64 0.08
02/04/2016 742.47 1608340 13543 2800721 -1192380 356 7138 0 -- 0.00 18.64 0.00
02/05/2016 743.77 1620143 11802 2816839 -1196696 531 6494 13 -- 0.00 -- 0.00
02/06/2016 -- -- -- -- -- -- -- -- -- -- -- --

Later | Latest

Warning! This data is preliminary and subject to revision.

Show ORO Map | Plot ORO Data | 1 Month ORO Data | Real-Time ORO Data | ORO Info